Time;durP1;ratioP1;P1;durP2;ratioP2;P2;SDS_P1;SDS_P2;PMS_P1;PMS_P2;Temp;Humidity;BMP_temperature;BMP_pressure;BME280_temperature;BME280_humidity;BME280_pressure;Samples;Min_cycle;Max_cycle;Signal;HPM_P1;HPM_P2
2023/06/13 00:02:01;;;;;;;6.00;4.60;;;21.00;62.70;;;;;;4956109;28;20230;-79
2023/06/13 00:04:30;;;;;;;6.05;4.57;;;21.00;62.70;;;;;;4973577;28;20218;-79
2023/06/13 00:06:57;;;;;;;5.38;4.47;;;21.00;62.70;;;;;;4987907;28;20229;-78
2023/06/13 00:09:25;;;;;;;5.43;4.30;;;21.00;62.70;;;;;;4973143;28;20651;-78
2023/06/13 00:11:53;;;;;;;5.53;4.38;;;20.90;62.60;;;;;;4973343;28;20195;-80
2023/06/13 00:14:23;;;;;;;6.38;5.00;;;21.00;62.70;;;;;;4973346;28;20234;-78
2023/06/13 00:16:50;;;;;;;6.35;4.63;;;21.00;62.70;;;;;;4973352;28;20190;-80
2023/06/13 00:19:18;;;;;;;7.03;4.35;;;21.00;62.70;;;;;;4973584;28;20254;-77
2023/06/13 00:21:46;;;;;;;6.90;4.32;;;20.90;62.60;;;;;;4973274;28;20195;-76
2023/06/13 00:24:13;;;;;;;6.55;4.72;;;20.90;62.60;;;;;;4973372;28;20221;-76
2023/06/13 00:26:40;;;;;;;6.18;4.40;;;20.90;63.30;;;;;;4972901;28;20664;-75
2023/06/13 00:29:07;;;;;;;6.28;4.38;;;20.90;62.50;;;;;;4956122;28;20321;-75
2023/06/13 00:31:35;;;;;;;7.75;4.38;;;20.90;62.50;;;;;;4973245;28;20250;-76
2023/06/13 00:34:03;;;;;;;5.88;4.50;;;20.90;62.50;;;;;;4972860;28;20231;-77
2023/06/13 00:36:32;;;;;;;6.32;4.13;;;20.90;62.50;;;;;;4972775;28;20209;-75
2023/06/13 00:38:59;;;;;;;7.28;4.90;;;20.90;62.50;;;;;;4973115;28;20218;-77
2023/06/13 00:41:26;;;;;;;6.28;4.32;;;20.90;62.50;;;;;;4972721;28;20788;-75
2023/06/13 00:43:53;;;;;;;5.38;4.68;;;20.90;62.50;;;;;;4973623;28;20305;-76
2023/06/13 00:46:28;;;;;;;7.05;4.57;;;20.90;62.50;;;;;;4976768;28;20191;-76
2023/06/13 00:48:58;;;;;;;5.43;4.28;;;20.90;62.50;;;;;;4959206;28;20222;-78
2023/06/13 00:51:27;;;;;;;5.82;4.47;;;20.90;62.50;;;;;;4976432;28;20646;-77
2023/06/13 00:53:56;;;;;;;5.15;4.25;;;20.90;62.50;;;;;;4976598;28;20576;-75
2023/06/13 00:56:28;;;;;;;6.22;4.72;;;20.90;62.50;;;;;;4959746;28;20195;-76
2023/06/13 00:58:56;;;;;;;5.88;4.13;;;20.90;62.50;;;;;;4959022;28;20795;-76
2023/06/13 01:01:24;;;;;;;6.53;4.85;;;20.90;62.40;;;;;;4976718;28;20198;-76
2023/06/13 01:03:52;;;;;;;6.35;4.93;;;20.90;62.40;;;;;;4974862;28;20215;-75
2023/06/13 01:06:24;;;;;;;4.68;4.18;;;20.90;63.20;;;;;;4976229;28;20194;-76
2023/06/13 01:08:52;;;;;;;5.45;3.95;;;20.80;62.30;;;;;;4976391;28;20305;-76
2023/06/13 01:11:25;;;;;;;5.75;4.18;;;20.90;62.40;;;;;;4976142;28;20195;-75
2023/06/13 01:14:00;;;;;;;5.95;4.80;;;20.90;62.40;;;;;;4991109;28;20223;-75
2023/06/13 01:16:36;;;;;;;8.10;4.68;;;20.80;62.30;;;;;;4976230;28;20194;-77
2023/06/13 01:19:11;;;;;;;6.85;4.80;;;20.80;62.30;;;;;;4975945;28;20590;-76
2023/06/13 01:21:41;;;;;;;7.05;5.10;;;20.90;62.40;;;;;;4975918;28;20285;-78
2023/06/13 01:24:14;;;;;;;5.35;4.45;;;20.80;62.30;;;;;;4976140;28;20635;-76
2023/06/13 01:27:00;;;;;;;6.65;4.35;;;20.90;62.40;;;;;;4976118;28;20616;-80
2023/06/13 01:29:29;;;;;;;6.68;4.22;;;20.90;62.40;;;;;;4973515;28;20602;-81
2023/06/13 01:31:57;;;;;;;5.50;4.57;;;20.90;62.40;;;;;;4976029;28;20193;-79
2023/06/13 01:34:25;;;;;;;7.55;4.82;;;20.90;62.30;;;;;;4975992;28;20240;-78
2023/06/13 01:36:53;;;;;;;6.55;5.10;;;20.90;62.40;;;;;;4975626;28;20653;-76
2023/06/13 01:39:20;;;;;;;6.15;4.70;;;20.80;62.30;;;;;;4975880;28;20222;-75
2023/06/13 01:42:03;;;;;;;6.47;4.93;;;20.90;62.50;;;;;;5110037;27;20597;-79
2023/06/13 01:44:31;;;;;;;5.95;4.95;;;20.80;62.20;;;;;;5110132;28;20225;-77
2023/06/13 01:47:06;;;;;;;6.13;4.95;;;20.90;62.30;;;;;;5110457;28;20287;-78
2023/06/13 01:49:47;;;;;;;8.32;4.65;;;20.80;62.20;;;;;;5110351;28;20270;-76
2023/06/13 01:52:22;;;;;;;7.22;4.70;;;20.80;62.20;;;;;;5110040;28;20268;-76
2023/06/13 01:54:55;;;;;;;6.88;4.70;;;20.80;62.20;;;;;;5110275;28;20223;-76
2023/06/13 01:57:29;;;;;;;6.25;5.10;;;20.80;62.30;;;;;;5109797;28;20585;-77
2023/06/13 01:59:58;;;;;;;5.53;4.55;;;20.80;62.20;;;;;;5108832;28;20214;-76
2023/06/13 02:02:25;;;;;;;6.60;5.07;;;20.80;62.20;;;;;;5109956;28;20195;-77
2023/06/13 02:04:52;;;;;;;5.75;4.72;;;20.80;62.20;;;;;;5109946;28;20304;-78
2023/06/13 02:07:19;;;;;;;7.13;4.95;;;20.80;62.20;;;;;;5109576;28;20189;-76
2023/06/13 02:09:46;;;;;;;6.95;5.05;;;20.80;62.20;;;;;;5109674;28;20300;-77
2023/06/13 02:12:14;;;;;;;7.03;5.15;;;20.80;62.20;;;;;;5108193;28;20669;-77
2023/06/13 02:14:42;;;;;;;7.80;5.10;;;20.80;62.20;;;;;;5109638;28;20223;-77
2023/06/13 02:17:11;;;;;;;6.47;4.90;;;20.80;62.20;;;;;;5109636;28;20208;-77
2023/06/13 02:19:38;;;;;;;5.90;4.70;;;20.80;62.20;;;;;;5108165;28;20594;-77
2023/06/13 02:22:06;;;;;;;5.40;4.75;;;20.80;62.20;;;;;;5108242;28;20222;-77
2023/06/13 02:24:33;;;;;;;6.13;4.85;;;20.80;62.20;;;;;;5108256;28;20251;-78
2023/06/13 02:27:00;;;;;;;7.00;5.30;;;20.80;62.20;;;;;;5109611;28;20287;-78
2023/06/13 02:29:27;;;;;;;8.55;5.40;;;20.80;62.20;;;;;;5108985;28;20726;-77
2023/06/13 02:31:55;;;;;;;7.65;5.32;;;20.80;62.20;;;;;;5109403;28;20186;-76
2023/06/13 02:34:22;;;;;;;8.32;5.38;;;20.80;62.20;;;;;;5109163;28;20217;-77
2023/06/13 02:36:49;;;;;;;6.70;5.07;;;20.80;62.20;;;;;;5109041;28;20281;-76
2023/06/13 02:39:16;;;;;;;6.88;5.32;;;20.80;62.20;;;;;;5102672;28;20766;-77
2023/06/13 02:41:42;;;;;;;8.63;5.28;;;20.80;62.10;;;;;;5089934;28;20785;-77
2023/06/13 02:44:09;;;;;;;7.20;5.15;;;20.80;62.10;;;;;;5088798;28;20224;-78
2023/06/13 02:46:36;;;;;;;6.72;5.18;;;20.70;62.00;;;;;;5088470;28;20277;-76
2023/06/13 02:49:05;;;;;;;7.10;5.05;;;20.70;62.00;;;;;;5088290;28;20221;-76
2023/06/13 02:51:32;;;;;;;6.18;5.18;;;20.80;62.10;;;;;;5085546;28;20187;-78
2023/06/13 02:53:59;;;;;;;7.07;5.45;;;20.80;62.10;;;;;;5075023;28;20336;-77
2023/06/13 02:56:28;;;;;;;8.05;5.53;;;20.80;62.10;;;;;;5073940;28;20193;-77
2023/06/13 02:58:55;;;;;;;7.93;5.47;;;20.80;62.10;;;;;;5074799;28;20222;-77
2023/06/13 03:01:22;;;;;;;6.65;5.03;;;20.80;62.10;;;;;;5074487;28;20720;-76
2023/06/13 03:03:49;;;;;;;8.10;5.80;;;20.70;62.00;;;;;;5074987;28;20309;-78
2023/06/13 03:06:18;;;;;;;9.35;5.63;;;20.80;62.10;;;;;;5074356;28;20278;-76
2023/06/13 03:08:45;;;;;;;7.57;5.57;;;20.80;62.10;;;;;;5074568;28;20704;-77
2023/06/13 03:11:13;;;;;;;8.27;5.47;;;20.80;62.10;;;;;;5074744;28;20197;-76
2023/06/13 03:13:40;;;;;;;6.90;5.30;;;20.80;62.10;;;;;;5074835;28;20355;-77
2023/06/13 03:16:08;;;;;;;8.70;5.88;;;20.80;62.10;;;;;;5073539;28;20187;-77
2023/06/13 03:18:36;;;;;;;9.27;6.53;;;20.70;62.00;;;;;;5074615;28;20236;-76
2023/06/13 03:21:04;;;;;;;8.25;6.10;;;20.80;62.10;;;;;;5074547;28;20310;-78
2023/06/13 03:23:32;;;;;;;9.05;5.80;;;20.80;62.10;;;;;;5074604;28;20270;-77
2023/06/13 03:26:00;;;;;;;8.93;5.78;;;20.80;62.10;;;;;;5074605;28;20203;-76
2023/06/13 03:28:27;;;;;;;9.98;6.10;;;20.70;62.00;;;;;;5074176;28;20232;-77
2023/06/13 03:30:57;;;;;;;7.53;5.70;;;20.70;62.00;;;;;;5074315;28;20205;-77
2023/06/13 03:33:24;;;;;;;7.72;5.68;;;20.80;62.10;;;;;;5074263;28;20199;-76
2023/06/13 03:35:52;;;;;;;8.02;5.68;;;20.70;62.00;;;;;;5074340;28;20268;-77
2023/06/13 03:38:20;;;;;;;9.27;5.70;;;20.80;62.00;;;;;;5073945;28;20237;-78
2023/06/13 03:40:48;;;;;;;8.50;6.20;;;20.80;62.10;;;;;;5073806;28;20321;-77
2023/06/13 03:43:15;;;;;;;8.80;6.18;;;20.70;61.90;;;;;;5073999;28;20724;-77
2023/06/13 03:45:42;;;;;;;8.27;6.03;;;20.70;62.00;;;;;;5074199;28;20302;-76
2023/06/13 03:48:09;;;;;;;9.50;6.45;;;20.70;62.00;;;;;;5073792;28;20183;-76
2023/06/13 03:50:36;;;;;;;8.57;5.55;;;20.70;62.00;;;;;;5073749;28;20834;-77
2023/06/13 03:53:03;;;;;;;7.63;5.85;;;20.70;61.90;;;;;;5072908;28;20270;-79
2023/06/13 03:55:32;;;;;;;8.18;5.70;;;20.70;62.00;;;;;;5073891;28;20347;-78
2023/06/13 03:58:00;;;;;;;10.10;6.20;;;20.70;62.00;;;;;;5073923;28;20183;-78
2023/06/13 04:00:27;;;;;;;7.57;5.95;;;20.70;62.00;;;;;;5073701;28;20219;-76
2023/06/13 04:02:55;;;;;;;8.63;6.30;;;20.70;62.00;;;;;;5073925;28;20408;-78
2023/06/13 04:05:23;;;;;;;7.75;5.85;;;20.70;62.00;;;;;;5073167;28;20296;-77
2023/06/13 04:07:53;;;;;;;7.70;5.60;;;20.70;62.00;;;;;;5073687;28;20202;-76
2023/06/13 04:10:20;;;;;;;7.25;5.45;;;20.70;62.00;;;;;;5073585;28;20217;-78
2023/06/13 04:12:47;;;;;;;7.60;5.68;;;20.70;62.00;;;;;;5073373;28;20191;-77
2023/06/13 04:15:16;;;;;;;8.82;6.20;;;20.70;62.00;;;;;;5073679;28;20215;-78
2023/06/13 04:17:43;;;;;;;7.43;5.72;;;20.70;62.00;;;;;;5072031;28;20194;-77
2023/06/13 04:20:10;;;;;;;8.80;5.63;;;20.70;62.00;;;;;;5073008;28;20218;-77
2023/06/13 04:22:37;;;;;;;7.95;5.60;;;20.70;62.00;;;;;;5073298;28;20218;-77
2023/06/13 04:25:05;;;;;;;8.15;5.28;;;20.70;62.00;;;;;;5073510;28;20618;-77
2023/06/13 04:27:32;;;;;;;8.50;5.53;;;20.70;62.00;;;;;;5073026;28;20183;-79
2023/06/13 04:29:59;;;;;;;7.88;5.53;;;20.70;62.00;;;;;;5072869;28;20652;-77
2023/06/13 04:32:28;;;;;;;7.60;5.90;;;20.70;62.00;;;;;;5073255;28;20219;-76
2023/06/13 04:34:58;;;;;;;8.95;6.13;;;20.70;62.00;;;;;;5073463;28;20222;-76
2023/06/13 04:37:25;;;;;;;7.53;5.50;;;20.70;62.10;;;;;;5073264;28;20194;-77
2023/06/13 04:39:52;;;;;;;7.07;5.50;;;20.70;62.90;;;;;;5072840;28;20218;-76
2023/06/13 04:42:24;;;;;;;7.45;5.45;;;20.70;62.10;;;;;;5072495;28;20301;-76
2023/06/13 04:44:53;;;;;;;8.73;6.30;;;20.70;62.00;;;;;;5072960;28;20677;-78
2023/06/13 04:47:21;;;;;;;8.95;5.20;;;20.70;62.10;;;;;;5072931;28;20224;-77
2023/06/13 04:49:51;;;;;;;8.27;5.15;;;20.70;62.10;;;;;;5071654;28;20214;-78
2023/06/13 04:52:18;;;;;;;7.78;5.68;;;20.70;62.10;;;;;;5072818;28;20188;-76
2023/06/13 04:54:45;;;;;;;8.73;5.68;;;20.70;62.10;;;;;;5072546;28;20728;-76
2023/06/13 04:57:13;;;;;;;9.45;5.72;;;20.70;62.10;;;;;;5071571;28;20210;-77
2023/06/13 04:59:41;;;;;;;8.02;5.60;;;20.70;62.10;;;;;;5071348;28;20245;-76
2023/06/13 05:02:08;;;;;;;8.93;5.82;;;20.70;62.10;;;;;;5072574;28;20214;-77
2023/06/13 05:04:36;;;;;;;9.23;5.90;;;20.70;62.10;;;;;;5072744;28;20219;-78
2023/06/13 05:07:06;;;;;;;7.20;5.57;;;20.70;62.10;;;;;;5072677;28;20194;-77
2023/06/13 05:09:33;;;;;;;6.75;4.90;;;20.70;62.10;;;;;;5072360;28;20309;-77
2023/06/13 05:12:00;;;;;;;7.60;5.57;;;20.70;62.10;;;;;;5072199;28;20198;-76
2023/06/13 05:14:27;;;;;;;9.57;5.82;;;20.70;62.10;;;;;;5071869;28;20632;-77
2023/06/13 05:16:55;;;;;;;7.15;5.50;;;20.70;62.90;;;;;;5072633;28;20277;-76
2023/06/13 05:19:23;;;;;;;6.55;5.07;;;20.70;62.10;;;;;;5072685;28;20211;-76
2023/06/13 05:21:50;;;;;;;6.85;5.38;;;20.70;62.10;;;;;;5071133;28;20219;-76
2023/06/13 05:24:19;;;;;;;7.75;5.30;;;20.70;62.10;;;;;;5072575;28;20647;-79
2023/06/13 05:26:46;;;;;;;7.45;5.22;;;20.70;62.10;;;;;;5071066;28;20203;-77
2023/06/13 05:29:13;;;;;;;7.00;5.40;;;20.70;62.10;;;;;;5070789;28;20587;-78
2023/06/13 05:31:40;;;;;;;6.45;5.10;;;20.70;62.10;;;;;;5072359;28;20214;-76
2023/06/13 05:34:06;;;;;;;7.65;4.78;;;20.70;62.10;;;;;;5072081;28;20783;-77
2023/06/13 05:36:33;;;;;;;7.20;5.13;;;20.70;62.10;;;;;;5071089;28;20274;-78
2023/06/13 05:39:01;;;;;;;7.85;5.30;;;20.70;62.10;;;;;;5072289;28;20669;-78
2023/06/13 05:41:29;;;;;;;6.78;5.22;;;20.70;62.10;;;;;;5071740;28;20746;-77
2023/06/13 05:43:56;;;;;;;7.15;4.90;;;20.70;62.10;;;;;;5072235;28;20210;-77
2023/06/13 05:46:23;;;;;;;5.93;4.32;;;20.70;62.10;;;;;;5072198;28;20219;-78
2023/06/13 05:48:50;;;;;;;6.00;4.88;;;20.70;62.10;;;;;;5072140;28;20203;-76
2023/06/13 05:51:17;;;;;;;6.18;4.85;;;20.70;62.20;;;;;;5072068;28;20198;-77
2023/06/13 05:53:44;;;;;;;7.55;4.90;;;20.70;62.20;;;;;;5072097;28;20222;-77
2023/06/13 05:56:11;;;;;;;7.10;5.18;;;20.70;62.20;;;;;;5071780;28;20198;-77
2023/06/13 05:58:39;;;;;;;5.63;4.75;;;20.70;62.20;;;;;;5071844;28;20191;-76
2023/06/13 06:01:06;;;;;;;5.90;4.65;;;20.70;62.20;;;;;;5071980;28;20191;-76
2023/06/13 06:03:34;;;;;;;7.90;4.82;;;20.70;62.20;;;;;;5071855;28;20191;-78
2023/06/13 06:06:01;;;;;;;6.85;5.28;;;20.70;62.20;;;;;;5072033;28;20222;-76
2023/06/13 06:08:28;;;;;;;6.05;4.90;;;20.70;62.20;;;;;;5072012;28;20269;-76
2023/06/13 06:10:56;;;;;;;6.93;5.10;;;20.70;62.20;;;;;;5072231;28;20219;-77
2023/06/13 06:13:23;;;;;;;7.28;5.18;;;20.70;62.20;;;;;;5070849;28;20195;-77
2023/06/13 06:15:52;;;;;;;6.45;4.78;;;20.60;62.10;;;;;;5020572;28;20263;-78
2023/06/13 06:18:21;;;;;;;5.60;4.55;;;20.70;62.20;;;;;;5071729;28;20188;-76
2023/06/13 06:20:48;;;;;;;5.28;4.68;;;20.70;62.30;;;;;;5071751;28;20348;-77
2023/06/13 06:23:16;;;;;;;6.63;4.70;;;20.60;62.10;;;;;;5071492;28;20215;-77
2023/06/13 06:25:43;;;;;;;6.18;4.85;;;20.70;62.30;;;;;;5072064;28;20215;-77
2023/06/13 06:28:10;;;;;;;6.40;4.63;;;20.70;62.30;;;;;;5074447;28;20274;-78
2023/06/13 06:30:37;;;;;;;6.70;4.75;;;20.70;62.30;;;;;;5075656;28;20220;-77
2023/06/13 06:33:05;;;;;;;5.60;4.53;;;20.70;62.30;;;;;;5075470;28;20278;-78
2023/06/13 06:35:32;;;;;;;6.30;4.88;;;20.60;62.20;;;;;;5075196;28;20230;-77
2023/06/13 06:38:00;;;;;;;6.25;4.85;;;20.70;62.30;;;;;;5075099;28;20203;-77
2023/06/13 06:40:27;;;;;;;4.82;4.07;;;20.70;62.30;;;;;;5074906;28;20283;-76
2023/06/13 06:42:54;;;;;;;5.50;4.47;;;20.60;62.20;;;;;;5073742;28;20228;-76
2023/06/13 06:45:20;;;;;;;7.10;4.65;;;20.60;62.20;;;;;;5075189;28;20634;-76
2023/06/13 06:47:49;;;;;;;6.78;4.50;;;20.70;62.30;;;;;;5075168;28;20197;-79
2023/06/13 06:50:17;;;;;;;7.90;5.07;;;20.70;62.30;;;;;;5072963;28;20218;-80
2023/06/13 06:52:44;;;;;;;5.95;4.60;;;20.70;62.50;;;;;;5088486;28;20661;-80
2023/06/13 06:55:12;;;;;;;6.40;4.88;;;20.70;62.50;;;;;;5095449;28;20240;-79
2023/06/13 06:57:39;;;;;;;7.53;4.80;;;20.70;62.50;;;;;;5094537;28;20239;-80
2023/06/13 07:00:10;;;;;;;6.72;5.15;;;20.70;62.50;;;;;;5094774;28;20222;-80
2023/06/13 07:02:37;;;;;;;6.20;4.75;;;20.70;62.50;;;;;;5094973;28;20291;-79
2023/06/13 07:05:07;;;;;;;6.28;4.65;;;20.80;62.60;;;;;;5082747;28;20317;-80
2023/06/13 07:07:36;;;;;;;8.25;5.40;;;20.80;62.70;;;;;;5069316;28;20339;-77
2023/06/13 07:10:06;;;;;;;9.35;4.88;;;20.80;62.80;;;;;;5080956;28;20858;-77
2023/06/13 07:12:34;;;;;;;6.97;4.75;;;20.80;62.90;;;;;;5096718;27;20256;-78
2023/06/13 07:15:01;;;;;;;7.10;4.72;;;20.80;62.80;;;;;;5063707;28;20222;-74
2023/06/13 07:17:30;;;;;;;6.88;5.07;;;20.90;63.10;;;;;;5080486;28;20611;-74
2023/06/13 07:20:21;;;;;;;8.00;4.93;;;20.90;63.10;;;;;;5065602;28;20309;-76
2023/06/13 07:22:51;;;;;;;10.23;4.93;;;20.90;63.10;;;;;;5041234;28;20221;-83
2023/06/13 07:45:56;;;;;;;7.47;5.50;;;21.00;63.20;;;;;;4723929;30;20348;-78
2023/06/13 08:08:58;;;;;;;8.13;5.72;;;21.50;63.40;;;;;;4693097;30;20396;-78
2023/06/13 08:11:27;;;;;;;7.50;5.57;;;21.50;62.60;;;;;;4746402;29;20228;-77
2023/06/13 08:13:56;;;;;;;9.57;5.47;;;21.50;62.60;;;;;;4784413;29;20220;-84
2023/06/13 08:16:23;;;;;;;8.40;6.07;;;21.50;62.70;;;;;;4798780;29;20241;-79
2023/06/13 08:18:51;;;;;;;11.80;5.40;;;21.60;62.70;;;;;;4814179;29;20269;-82
2023/06/13 08:21:19;;;;;;;9.90;5.63;;;21.60;62.70;;;;;;4894130;29;20243;-85
2023/06/13 08:23:55;;;;;;;9.10;5.38;;;21.60;62.70;;;;;;4962705;28;20300;-79
2023/06/13 08:26:25;;;;;;;8.00;5.25;;;21.70;62.70;;;;;;4982659;28;20241;-78
2023/06/13 08:28:53;;;;;;;6.82;5.82;;;21.70;62.80;;;;;;5024965;28;20881;-79
2023/06/13 08:31:23;;;;;;;8.40;5.72;;;21.70;62.70;;;;;;5056196;28;20266;-78
2023/06/13 08:33:51;;;;;;;9.23;5.47;;;21.70;62.50;;;;;;5061585;28;20222;-79
2023/06/13 08:36:18;;;;;;;7.90;5.68;;;21.80;62.50;;;;;;5047485;28;20222;-78
2023/06/13 08:38:45;;;;;;;6.97;5.47;;;21.80;62.60;;;;;;5103245;27;20249;-77
2023/06/13 08:41:14;;;;;;;12.35;6.00;;;21.80;62.40;;;;;;5126859;27;20247;-79
2023/06/13 08:43:44;;;;;;;9.32;5.97;;;21.80;62.30;;;;;;5127564;27;20277;-81
2023/06/13 08:46:19;;;;;;;8.68;6.03;;;21.80;62.30;;;;;;5124722;27;20258;-79
2023/06/13 08:48:47;;;;;;;10.80;6.10;;;21.90;62.40;;;;;;5105685;27;20283;-79
2023/06/13 08:51:16;;;;;;;8.05;5.93;;;21.90;62.30;;;;;;5109955;27;20305;-79
2023/06/13 08:53:49;;;;;;;9.27;5.95;;;21.90;62.20;;;;;;5120414;27;20600;-80
2023/06/13 08:56:16;;;;;;;11.00;6.35;;;21.90;62.20;;;;;;5122075;27;20218;-81
2023/06/13 08:58:47;;;;;;;8.60;5.85;;;21.90;62.20;;;;;;5111372;27;20677;-81
2023/06/13 09:01:17;;;;;;;10.77;6.15;;;21.90;62.20;;;;;;5103988;27;20213;-80
2023/06/13 09:03:45;;;;;;;8.27;5.60;;;21.90;62.20;;;;;;5119073;27;20244;-77
2023/06/13 09:06:14;;;;;;;10.23;5.43;;;22.00;62.30;;;;;;5103087;28;20248;-81
2023/06/13 09:08:42;;;;;;;7.47;5.32;;;22.00;62.30;;;;;;5102775;27;20197;-81
2023/06/13 09:11:10;;;;;;;11.55;5.80;;;22.00;62.30;;;;;;5120303;27;20266;-79
2023/06/13 09:13:37;;;;;;;9.35;5.50;;;22.10;62.40;;;;;;5104082;27;20228;-86
2023/06/13 09:16:07;;;;;;;12.68;6.07;;;22.10;62.50;;;;;;5119095;27;20220;-81
2023/06/13 09:18:36;;;;;;;14.30;5.65;;;22.10;62.40;;;;;;5122764;27;20201;-83
2023/06/13 09:21:04;;;;;;;8.00;5.82;;;22.10;62.20;;;;;;5120989;27;20888;-84
2023/06/13 09:23:32;;;;;;;10.68;5.88;;;22.10;62.10;;;;;;5108798;27;20252;-81
2023/06/13 09:26:01;;;;;;;8.40;6.25;;;22.10;62.60;;;;;;5105448;27;20240;-84
2023/06/13 09:28:34;;;;;;;11.23;5.85;;;22.20;61.80;;;;;;5121887;27;20256;-80
2023/06/13 09:31:01;;;;;;;11.13;6.25;;;22.20;61.80;;;;;;5101704;28;20701;-86
2023/06/13 09:33:30;;;;;;;7.88;5.55;;;22.20;61.60;;;;;;5103887;27;20221;-80
2023/06/13 09:35:57;;;;;;;11.20;5.70;;;22.30;61.70;;;;;;5101682;28;20225;-81
2023/06/13 09:38:24;;;;;;;9.27;5.95;;;22.30;61.80;;;;;;5122735;27;20227;-81
2023/06/13 09:40:54;;;;;;;12.52;5.95;;;22.30;61.70;;;;;;5123109;28;20212;-80
2023/06/13 09:43:22;;;;;;;7.82;5.93;;;22.40;61.60;;;;;;5126367;28;20827;-83
2023/06/13 09:45:50;;;;;;;8.45;5.70;;;22.40;61.50;;;;;;5123522;28;20243;-85
2023/06/13 09:48:18;;;;;;;8.98;5.60;;;22.40;61.40;;;;;;5122782;28;20683;-80
2023/06/13 09:50:48;;;;;;;8.63;5.43;;;22.40;61.50;;;;;;5123038;28;20216;-81
2023/06/13 09:53:15;;;;;;;8.40;6.32;;;22.40;61.50;;;;;;5127684;28;20225;-83
2023/06/13 09:55:43;;;;;;;10.20;6.03;;;22.50;61.40;;;;;;5127006;27;20598;-81
2023/06/13 09:58:11;;;;;;;8.98;6.25;;;22.50;61.30;;;;;;5127451;28;20228;-80
2023/06/13 10:00:38;;;;;;;7.35;5.55;;;22.50;61.20;;;;;;5129512;27;20705;-79
2023/06/13 10:03:07;;;;;;;7.78;5.35;;;22.50;61.30;;;;;;5125779;27;20705;-77
2023/06/13 10:05:34;;;;;;;7.65;5.53;;;22.50;61.30;;;;;;5116141;27;20221;-78
2023/06/13 10:08:03;;;;;;;13.10;6.07;;;22.50;62.20;;;;;;5121994;27;21675;-78
2023/06/13 10:10:31;;;;;;;10.55;6.57;;;22.60;61.20;;;;;;5125956;27;20834;-78
2023/06/13 10:13:02;;;;;;;12.02;7.45;;;22.50;60.70;;;;;;5128661;27;20200;-77
2023/06/13 10:15:34;;;;;;;12.82;7.93;;;22.50;60.40;;;;;;5111450;27;20235;-78
2023/06/13 10:18:06;;;;;;;13.10;8.52;;;22.60;60.40;;;;;;5078089;27;20745;-78
2023/06/13 10:20:35;;;;;;;9.95;7.55;;;22.50;60.10;;;;;;5128833;27;21030;-78
2023/06/13 10:23:08;;;;;;;13.15;7.78;;;22.60;60.00;;;;;;5105849;27;21439;-78
2023/06/13 10:25:38;;;;;;;12.05;8.07;;;22.50;59.90;;;;;;5131387;27;20608;-79
2023/06/13 10:28:20;;;;;;;11.48;8.02;;;22.60;59.80;;;;;;5111240;27;20275;-78
2023/06/13 10:31:01;;;;;;;11.90;9.05;;;22.50;59.60;;;;;;5129208;27;20212;-77
2023/06/13 10:33:52;;;;;;;13.05;8.60;;;22.50;59.40;;;;;;5128130;27;20324;-77
2023/06/13 10:36:27;;;;;;;13.68;8.50;;;22.50;59.40;;;;;;5109544;27;20224;-78
2023/06/13 10:39:31;;;;;;;11.98;8.13;;;22.50;59.40;;;;;;5128853;27;20248;-78
2023/06/13 10:42:10;;;;;;;14.82;8.50;;;22.40;58.80;;;;;;5107258;27;20224;-78
2023/06/13 10:44:45;;;;;;;12.10;8.10;;;22.50;58.70;;;;;;5129147;27;20801;-77
2023/06/13 10:47:18;;;;;;;11.45;8.80;;;22.50;58.50;;;;;;5128912;27;20220;-78
2023/06/13 10:49:51;;;;;;;15.55;8.43;;;22.40;58.40;;;;;;5112336;27;20193;-77
2023/06/13 10:52:20;;;;;;;11.55;8.70;;;22.40;58.30;;;;;;5126364;27;20634;-78
2023/06/13 10:54:55;;;;;;;13.07;8.57;;;22.40;58.30;;;;;;5111059;27;20275;-78
2023/06/13 10:57:23;;;;;;;13.93;8.23;;;22.40;58.20;;;;;;5128637;27;20223;-77
2023/06/13 10:59:51;;;;;;;15.20;8.27;;;22.40;58.30;;;;;;5129800;27;20268;-77
2023/06/13 11:02:20;;;;;;;12.93;8.70;;;22.40;58.20;;;;;;5126890;27;20216;-77
2023/06/13 11:04:52;;;;;;;13.70;8.23;;;22.40;58.20;;;;;;5129001;27;20261;-78
2023/06/13 11:07:28;;;;;;;10.75;8.38;;;22.40;58.10;;;;;;5125161;27;20244;-78
2023/06/13 11:10:13;;;;;;;11.07;8.75;;;22.40;58.10;;;;;;5128986;27;20185;-77
2023/06/13 11:12:42;;;;;;;16.00;9.02;;;22.40;57.80;;;;;;5124445;27;20182;-78
2023/06/13 11:18:25;;;;;;;17.20;9.32;;;22.30;57.50;;;;;;5126914;27;20693;-79
2023/06/13 11:20:54;;;;;;;12.55;8.60;;;22.30;57.50;;;;;;5029704;28;20223;-79
2023/06/13 11:23:24;;;;;;;13.65;9.52;;;22.30;57.50;;;;;;5042974;28;20231;-79
2023/06/13 11:25:53;;;;;;;11.13;8.63;;;22.30;57.50;;;;;;5045351;28;20314;-77
2023/06/13 11:28:21;;;;;;;14.02;8.93;;;22.30;57.50;;;;;;5046154;28;20180;-79
2023/06/13 11:30:48;;;;;;;14.90;8.77;;;22.30;57.50;;;;;;5046253;28;20677;-78
2023/06/13 11:33:17;;;;;;;11.85;8.85;;;22.30;57.20;;;;;;5030628;28;20211;-78
2023/06/13 11:35:49;;;;;;;13.30;8.68;;;22.30;57.20;;;;;;5046364;28;20228;-78
2023/06/13 11:38:21;;;;;;;13.52;9.20;;;22.30;57.20;;;;;;5045646;28;20254;-78
2023/06/13 11:40:52;;;;;;;11.43;7.95;;;22.30;57.20;;;;;;5048796;28;20632;-78
2023/06/13 11:43:21;;;;;;;12.77;7.82;;;22.30;57.40;;;;;;5049075;28;20282;-77
2023/06/13 11:45:49;;;;;;;12.05;7.50;;;22.30;57.50;;;;;;5030395;28;20231;-78
2023/06/13 11:48:22;;;;;;;10.90;7.43;;;22.30;57.50;;;;;;5041591;28;20195;-78
2023/06/13 11:50:49;;;;;;;14.38;8.32;;;22.30;57.50;;;;;;5047650;28;20732;-77
2023/06/13 11:53:18;;;;;;;11.15;6.53;;;22.30;57.50;;;;;;5031106;28;20679;-77
2023/06/13 11:55:46;;;;;;;10.85;6.60;;;22.40;57.70;;;;;;5030682;28;20708;-78
2023/06/13 11:58:14;;;;;;;9.57;6.55;;;22.30;57.90;;;;;;5074552;28;20225;-77
2023/06/13 12:00:54;;;;;;;10.48;6.47;;;22.40;58.00;;;;;;5088205;28;20340;-77
2023/06/13 12:03:23;;;;;;;9.73;6.13;;;22.40;58.10;;;;;;5110523;28;20315;-79
2023/06/13 12:05:50;;;;;;;8.93;6.00;;;22.40;58.10;;;;;;5109631;28;20217;-77
2023/06/13 12:08:18;;;;;;;8.93;6.13;;;22.40;58.20;;;;;;5100619;28;20201;-77
2023/06/13 12:10:48;;;;;;;9.43;6.13;;;22.40;58.30;;;;;;5108453;28;20209;-78
2023/06/13 12:13:17;;;;;;;9.00;6.45;;;22.50;58.50;;;;;;5106506;28;20711;-76
2023/06/13 12:15:45;;;;;;;8.10;6.10;;;22.50;58.60;;;;;;5106162;28;20217;-78
2023/06/13 12:18:21;;;;;;;7.40;5.70;;;22.50;58.80;;;;;;5105351;28;20244;-78
2023/06/13 12:20:50;;;;;;;9.23;5.88;;;22.50;58.90;;;;;;5092467;28;20208;-80
2023/06/13 12:23:19;;;;;;;8.80;5.75;;;22.50;59.00;;;;;;5108631;28;20221;-79
2023/06/13 12:25:47;;;;;;;10.55;5.72;;;22.50;59.10;;;;;;5092028;28;20209;-79
2023/06/13 12:28:17;;;;;;;19.40;6.00;;;22.50;59.10;;;;;;5082726;28;20288;-80
2023/06/13 12:30:45;;;;;;;12.05;7.38;;;22.50;59.10;;;;;;5088332;28;20250;-79
2023/06/13 12:33:18;;;;;;;14.38;8.00;;;22.50;58.90;;;;;;5110132;28;20239;-79
2023/06/13 12:35:53;;;;;;;11.38;7.70;;;22.50;58.60;;;;;;5099160;28;20204;-77
2023/06/13 12:38:20;;;;;;;14.32;8.52;;;22.50;58.50;;;;;;5109573;28;20223;-78
2023/06/13 12:40:51;;;;;;;15.35;8.52;;;22.50;58.40;;;;;;5091665;28;20213;-80
2023/06/13 12:43:24;;;;;;;13.35;8.65;;;22.50;58.10;;;;;;5111156;28;20229;-79
2023/06/13 12:45:52;;;;;;;16.90;9.43;;;22.50;58.10;;;;;;5128725;27;20261;-79
2023/06/13 12:48:22;;;;;;;14.05;8.93;;;22.50;57.80;;;;;;5132339;27;20204;-76
2023/06/13 12:50:50;;;;;;;19.52;9.77;;;22.50;57.70;;;;;;5128088;27;20264;-76
2023/06/13 12:53:20;;;;;;;14.35;9.40;;;22.50;57.60;;;;;;5132006;27;20189;-74
2023/06/13 12:55:49;;;;;;;20.35;9.10;;;22.50;57.20;;;;;;5121526;27;20200;-76
2023/06/13 12:58:35;;;;;;;18.27;10.05;;;22.40;57.10;;;;;;5131250;27;20577;-76
2023/06/13 13:01:04;;;;;;;14.13;9.45;;;22.40;56.90;;;;;;5125185;27;20229;-76
2023/06/13 13:03:34;;;;;;;17.67;9.30;;;22.40;56.80;;;;;;5124978;27;20565;-76
2023/06/13 13:06:02;;;;;;;14.25;8.88;;;22.40;56.70;;;;;;5119386;27;20219;-74
2023/06/13 13:08:30;;;;;;;18.00;9.88;;;22.40;56.70;;;;;;5126151;27;20541;-78
2023/06/13 13:10:57;;;;;;;21.95;10.07;;;22.40;56.90;;;;;;5122396;27;20212;-75
2023/06/13 13:13:25;;;;;;;19.33;9.63;;;22.40;57.00;;;;;;5108549;27;20644;-74
2023/06/13 13:15:52;;;;;;;18.95;9.65;;;22.40;57.20;;;;;;5087104;28;20201;-78
2023/06/13 13:18:20;;;;;;;19.13;8.95;;;22.50;57.40;;;;;;5123046;27;20232;-74
2023/06/13 13:20:48;;;;;;;23.60;9.57;;;22.40;57.50;;;;;;5126398;27;20200;-73
2023/06/13 13:23:16;;;;;;;18.52;8.50;;;22.50;57.70;;;;;;5124002;27;20642;-79
2023/06/13 13:25:44;;;;;;;14.73;7.93;;;22.50;57.70;;;;;;5125123;27;20705;-79
2023/06/13 13:28:11;;;;;;;18.92;7.65;;;22.50;57.70;;;;;;5125592;27;20212;-77
2023/06/13 13:30:38;;;;;;;17.17;7.25;;;22.50;57.80;;;;;;5128386;27;20196;-77
2023/06/13 13:33:04;;;;;;;13.35;7.40;;;22.50;57.80;;;;;;5128699;27;20307;-77
2023/06/13 13:35:32;;;;;;;12.68;7.30;;;22.50;58.10;;;;;;5127805;27;20207;-72
2023/06/13 13:38:04;;;;;;;11.88;7.35;;;22.50;58.10;;;;;;5121795;27;20245;-78